Time;durP1;ratioP1;P1;durP2;ratioP2;P2;SDS_P1;SDS_P2;PMS_P1;PMS_P2;Temp;Humidity;BMP_temperature;BMP_pressure;BME280_temperature;BME280_humidity;BME280_pressure;Samples;Min_cycle;Max_cycle;Signal;HPM_P1;HPM_P2
2023/03/08 00:01:45;;;;;;;;;;;;;;;28.07;61.23;101361.19;5052865;28;66482;-37
2023/03/08 00:04:15;;;;;;;;;;;;;;;28.11;61.92;101363.50;5051726;28;69735;-39
2023/03/08 00:06:46;;;;;;;;;;;;;;;28.12;62.01;101368.72;5047620;28;66241;-37
2023/03/08 00:09:16;;;;;;;;;;;;;;;28.15;62.33;101370.22;5050242;28;69781;-37
2023/03/08 00:11:46;;;;;;;;;;;;;;;28.17;61.75;101376.25;5050770;28;66536;-36
2023/03/08 00:14:19;;;;;;;;;;;;;;;28.20;61.83;101375.88;5043616;28;69419;-37
2023/03/08 00:16:49;;;;;;;;;;;;;;;28.21;62.25;101382.94;5044371;27;66926;-37
2023/03/08 00:19:19;;;;;;;;;;;;;;;28.24;62.12;101387.94;5050354;28;70383;-37
2023/03/08 00:21:49;;;;;;;;;;;;;;;28.18;62.18;101402.19;5043566;27;66251;-37
2023/03/08 00:24:20;;;;;;;;;;;;;;;27.99;61.98;101404.44;5049682;28;70357;-37
2023/03/08 00:26:50;;;;;;;;;;;;;;;27.82;62.10;101408.38;5047266;28;66859;-37
2023/03/08 00:29:20;;;;;;;;;;;;;;;27.68;63.03;101420.81;5044961;28;70089;-38
2023/03/08 00:31:50;;;;;;;;;;;;;;;27.60;63.12;101413.66;5049100;28;65643;-37
2023/03/08 00:34:21;;;;;;;;;;;;;;;27.71;63.01;101414.22;5049041;28;70647;-37
2023/03/08 00:36:51;;;;;;;;;;;;;;;27.84;63.32;101425.22;5053333;28;66802;-38
2023/03/08 00:39:21;;;;;;;;;;;;;;;27.94;63.24;101414.97;5050975;28;70075;-36
2023/03/08 00:41:52;;;;;;;;;;;;;;;27.93;61.50;101412.47;5058164;28;66682;-37
2023/03/08 00:44:22;;;;;;;;;;;;;;;27.96;61.06;101421.00;5047478;27;70582;-37
2023/03/08 00:46:52;;;;;;;;;;;;;;;27.99;60.29;101422.50;5053281;28;66234;-37
2023/03/08 00:49:23;;;;;;;;;;;;;;;28.03;60.15;101424.63;5048265;27;70513;-37
2023/03/08 00:51:53;;;;;;;;;;;;;;;28.06;60.00;101423.44;5051938;28;64632;-36
2023/03/08 00:54:23;;;;;;;;;;;;;;;28.09;59.41;101435.72;5046151;28;70368;-37
2023/03/08 00:56:53;;;;;;;;;;;;;;;28.12;59.20;101429.94;5050698;28;66220;-38
2023/03/08 00:59:24;;;;;;;;;;;;;;;28.14;59.08;101435.94;5066673;27;70048;-36
2023/03/08 01:01:57;;;;;;;;;;;;;;;28.16;58.99;101431.22;5052752;28;58600;-37
2023/03/08 01:04:28;;;;;;;;;;;;;;;28.20;58.59;101440.63;5054356;28;69779;-37
2023/03/08 01:06:59;;;;;;;;;;;;;;;28.21;58.58;101442.28;5048752;27;66637;-37
2023/03/08 01:09:31;;;;;;;;;;;;;;;28.23;58.43;101445.63;5064329;27;70395;-37
2023/03/08 01:12:01;;;;;;;;;;;;;;;28.25;58.64;101449.81;5045072;28;65991;-37
2023/03/08 01:14:31;;;;;;;;;;;;;;;28.27;58.41;101441.50;5054025;28;70281;-37
2023/03/08 01:17:01;;;;;;;;;;;;;;;28.29;58.31;101451.09;5049055;28;65557;-39
2023/03/08 01:19:32;;;;;;;;;;;;;;;28.30;58.00;101454.63;5055796;28;69966;-36
2023/03/08 01:22:02;;;;;;;;;;;;;;;28.34;58.35;101452.41;5053915;28;66241;-37
2023/03/08 01:24:33;;;;;;;;;;;;;;;28.34;58.22;101453.25;5043442;27;71732;-38
2023/03/08 01:27:03;;;;;;;;;;;;;;;28.37;57.80;101457.41;5054989;28;66106;-39
2023/03/08 01:29:33;;;;;;;;;;;;;;;28.38;57.95;101457.22;5052665;28;69811;-37
2023/03/08 01:32:04;;;;;;;;;;;;;;;28.39;58.01;101456.22;5047008;28;65491;-37
2023/03/08 01:34:36;;;;;;;;;;;;;;;28.42;57.61;101455.00;5056626;28;68899;-37
2023/03/08 01:37:06;;;;;;;;;;;;;;;28.42;57.65;101455.84;5052818;28;65640;-38
2023/03/08 01:39:37;;;;;;;;;;;;;;;28.45;57.46;101465.44;5047351;28;70151;-38
2023/03/08 01:42:07;;;;;;;;;;;;;;;28.45;57.61;101460.88;5046628;28;65822;-38
2023/03/08 01:44:49;;;;;;;;;;;;;;;28.48;57.70;101459.66;5046398;28;70291;-36
2023/03/08 01:47:21;;;;;;;;;;;;;;;28.49;57.18;101462.16;5048466;28;65395;-37
2023/03/08 01:50:23;;;;;;;;;;;;;;;28.52;57.40;101469.84;5053462;27;70083;-37
2023/03/08 01:52:54;;;;;;;;;;;;;;;28.52;56.86;101467.16;5049460;28;66766;-37
2023/03/08 01:55:25;;;;;;;;;;;;;;;28.56;57.25;101466.81;5046658;28;69933;-37
2023/03/08 01:57:58;;;;;;;;;;;;;;;28.57;57.12;101466.59;5046433;28;67294;-39
2023/03/08 02:00:29;;;;;;;;;;;;;;;28.60;57.02;101470.78;5044961;28;69790;-38
2023/03/08 02:03:01;;;;;;;;;;;;;;;28.61;56.50;101469.75;5049495;27;66184;-37
2023/03/08 02:05:31;;;;;;;;;;;;;;;28.63;56.41;101473.94;5042821;28;70002;-39
2023/03/08 02:08:12;;;;;;;;;;;;;;;28.65;56.31;101477.28;5060601;27;66295;-38
2023/03/08 02:10:45;;;;;;;;;;;;;;;28.67;56.72;101474.41;5054769;28;70240;-37
2023/03/08 02:13:18;;;;;;;;;;;;;;;28.68;56.60;101473.38;5080457;27;66196;-37
2023/03/08 02:15:49;;;;;;;;;;;;;;;28.70;56.67;101469.44;5064337;27;70432;-37
2023/03/08 02:18:22;;;;;;;;;;;;;;;28.71;56.46;101471.13;5074413;27;66448;-37
2023/03/08 02:20:52;;;;;;;;;;;;;;;28.74;55.98;101480.69;5045910;28;70722;-36
2023/03/08 02:23:24;;;;;;;;;;;;;;;28.77;56.43;101491.09;5050648;27;66272;-37
2023/03/08 02:25:56;;;;;;;;;;;;;;;28.78;56.28;101482.00;5049643;27;70036;-36
2023/03/08 02:28:26;;;;;;;;;;;;;;;28.81;55.89;101488.88;5048823;28;66563;-39
2023/03/08 02:30:57;;;;;;;;;;;;;;;28.82;55.94;101475.16;5048826;28;70402;-37
2023/03/08 02:33:29;;;;;;;;;;;;;;;28.85;55.72;101482.88;5046219;28;65380;-37
2023/03/08 02:36:02;;;;;;;;;;;;;;;28.88;56.17;101490.59;5051173;28;69804;-37
2023/03/08 02:38:33;;;;;;;;;;;;;;;28.89;56.00;101484.19;5046982;28;66764;-37
2023/03/08 02:41:03;;;;;;;;;;;;;;;28.92;55.78;101481.09;5043221;27;69818;-37
2023/03/08 02:43:33;;;;;;;;;;;;;;;28.95;55.49;101471.78;5047278;28;65181;-37
2023/03/08 02:46:06;;;;;;;;;;;;;;;28.96;55.34;101468.03;5060888;27;70438;-41
2023/03/08 02:48:37;;;;;;;;;;;;;;;28.99;55.58;101467.66;5078525;27;66015;-37
2023/03/08 02:51:07;;;;;;;;;;;;;;;29.01;55.27;101459.38;5047648;28;70363;-36
2023/03/08 02:53:38;;;;;;;;;;;;;;;29.04;55.42;101453.59;5049343;28;66567;-37
2023/03/08 02:56:08;;;;;;;;;;;;;;;29.06;55.60;101459.63;5042641;28;70315;-37
2023/03/08 02:58:39;;;;;;;;;;;;;;;29.09;55.49;101456.56;5053102;28;67442;-38
2023/03/08 03:01:11;;;;;;;;;;;;;;;29.12;55.37;101453.47;5044433;28;70775;-37
2023/03/08 03:03:42;;;;;;;;;;;;;;;29.14;55.28;101454.09;5066225;27;65638;-36
2023/03/08 03:06:16;;;;;;;;;;;;;;;29.16;55.44;101455.56;5042467;27;70639;-37
2023/03/08 03:08:51;;;;;;;;;;;;;;;29.18;55.16;101450.81;5083856;27;66645;-37
2023/03/08 03:11:22;;;;;;;;;;;;;;;29.22;54.69;101451.25;5066096;27;71095;-37
2023/03/08 03:13:54;;;;;;;;;;;;;;;29.24;54.79;101446.50;5060732;27;66232;-37
2023/03/08 03:16:28;;;;;;;;;;;;;;;29.27;54.83;101440.69;5044647;28;70416;-37
2023/03/08 03:18:59;;;;;;;;;;;;;;;29.29;54.59;101440.50;5044214;28;66263;-38
2023/03/08 03:21:29;;;;;;;;;;;;;;;29.31;54.52;101431.19;5067760;27;69733;-38
2023/03/08 03:24:00;;;;;;;;;;;;;;;29.34;54.38;101438.06;5078943;27;65611;-38
2023/03/08 03:26:43;;;;;;;;;;;;;;;29.37;54.29;101443.91;5032539;28;70038;-46
2023/03/08 03:29:13;;;;;;;;;;;;;;;29.39;54.79;101432.88;5053167;28;66496;-37
2023/03/08 03:31:47;;;;;;;;;;;;;;;29.42;54.25;101428.94;5059326;28;71033;-37
2023/03/08 03:34:19;;;;;;;;;;;;;;;29.44;54.23;101427.72;5057638;28;66645;-37
2023/03/08 03:36:51;;;;;;;;;;;;;;;29.47;54.56;101426.50;5049631;28;70432;-36
2023/03/08 03:39:22;;;;;;;;;;;;;;;29.49;53.99;101419.03;5052244;28;67848;-37
2023/03/08 03:41:53;;;;;;;;;;;;;;;29.50;53.96;101408.00;5046901;28;70529;-37
2023/03/08 03:44:24;;;;;;;;;;;;;;;29.54;54.19;101412.00;5051234;28;66570;-38
2023/03/08 03:46:56;;;;;;;;;;;;;;;29.56;54.31;101403.66;5046834;28;70270;-39
2023/03/08 03:49:28;;;;;;;;;;;;;;;29.60;53.74;101407.66;5056874;28;65796;-37
2023/03/08 03:51:59;;;;;;;;;;;;;;;29.62;54.16;101400.19;5062156;27;69225;-37
2023/03/08 03:54:38;;;;;;;;;;;;;;;29.64;53.44;101392.72;5065298;27;66745;-38
2023/03/08 03:57:09;;;;;;;;;;;;;;;29.67;53.64;101395.06;5050071;28;70114;-38
2023/03/08 03:59:42;;;;;;;;;;;;;;;29.69;53.34;101382.16;5044262;28;66224;-39
2023/03/08 04:02:12;;;;;;;;;;;;;;;29.71;53.30;101385.50;5051080;27;69892;-37
2023/03/08 04:04:51;;;;;;;;;;;;;;;29.74;53.71;101379.69;5085156;27;65665;-37
2023/03/08 04:07:26;;;;;;;;;;;;;;;29.76;53.14;101382.19;5060553;27;68866;-37
2023/03/08 04:10:00;;;;;;;;;;;;;;;29.79;53.15;101381.78;5056608;28;66296;-39
2023/03/08 04:12:32;;;;;;;;;;;;;;;29.80;53.18;101373.47;5076734;27;70274;-38
2023/03/08 04:15:02;;;;;;;;;;;;;;;29.83;53.47;101373.06;5055911;28;64978;-37
2023/03/08 04:17:33;;;;;;;;;;;;;;;29.87;53.40;101369.97;5059616;27;70616;-38
2023/03/08 04:20:05;;;;;;;;;;;;;;;29.90;53.35;101356.06;5085770;27;67056;-37
2023/03/08 04:22:40;;;;;;;;;;;;;;;29.92;52.79;101359.38;5064505;27;70219;-37
2023/03/08 04:25:23;;;;;;;;;;;;;;;29.95;52.90;101349.00;5054410;28;66209;-37
2023/03/08 04:27:59;;;;;;;;;;;;;;;29.97;53.05;101346.91;5058056;28;70668;-38
2023/03/08 04:30:29;;;;;;;;;;;;;;;29.99;52.56;101333.19;5041292;28;65609;-37
2023/03/08 04:33:02;;;;;;;;;;;;;;;30.02;52.45;101324.66;5045018;28;70609;-37
2023/03/08 04:35:41;;;;;;;;;;;;;;;30.04;52.41;101315.31;5050835;27;66699;-37
2023/03/08 04:38:13;;;;;;;;;;;;;;;30.07;52.45;101314.06;5037364;28;68805;-37
2023/03/08 04:41:00;;;;;;;;;;;;;;;30.09;52.56;101301.16;5036920;28;66296;-38
2023/03/08 04:43:38;;;;;;;;;;;;;;;30.12;52.75;101302.63;5084894;27;70564;-37
2023/03/08 04:46:09;;;;;;;;;;;;;;;30.15;52.43;101297.63;5053931;28;66371;-36
2023/03/08 04:48:40;;;;;;;;;;;;;;;30.18;52.59;101294.53;5055169;28;69335;-37
2023/03/08 04:51:12;;;;;;;;;;;;;;;30.21;52.37;101283.28;5064721;27;66886;-37
2023/03/08 04:53:44;;;;;;;;;;;;;;;30.23;52.49;101283.13;5049616;27;70193;-38
2023/03/08 04:56:16;;;;;;;;;;;;;;;30.26;52.03;101274.59;5047703;28;68356;-37
2023/03/08 04:58:48;;;;;;;;;;;;;;;30.27;52.47;101260.84;5071221;27;70284;-37
2023/03/08 05:01:22;;;;;;;;;;;;;;;30.30;52.31;101258.75;5048486;27;66692;-39
2023/03/08 05:03:54;;;;;;;;;;;;;;;30.33;52.00;101252.94;5056228;28;69302;-38
2023/03/08 05:06:32;;;;;;;;;;;;;;;30.35;52.11;101253.56;5029822;27;66325;-37
2023/03/08 05:09:02;;;;;;;;;;;;;;;30.35;52.00;101240.84;5046648;28;70695;-36
2023/03/08 05:11:33;;;;;;;;;;;;;;;30.38;51.93;101245.03;5049927;28;66476;-38
2023/03/08 05:14:05;;;;;;;;;;;;;;;30.41;51.89;101233.78;5079221;27;70571;-38
2023/03/08 05:16:36;;;;;;;;;;;;;;;30.43;51.69;101234.41;5065529;27;65727;-37
2023/03/08 05:19:07;;;;;;;;;;;;;;;30.44;51.40;101219.81;5055197;28;70010;-36
2023/03/08 05:21:45;;;;;;;;;;;;;;;30.46;51.13;101226.69;5055072;28;66417;-36
2023/03/08 05:24:15;;;;;;;;;;;;;;;30.48;51.15;101224.63;5050005;28;70047;-38
2023/03/08 05:26:47;;;;;;;;;;;;;;;30.49;51.31;101217.31;5045713;27;65981;-39
2023/03/08 05:29:18;;;;;;;;;;;;;;;30.50;51.04;101216.28;5055171;28;70389;-37
2023/03/08 05:31:49;;;;;;;;;;;;;;;30.50;51.06;101210.84;5050834;28;66648;-37
2023/03/08 05:34:20;;;;;;;;;;;;;;;30.52;50.88;101197.94;5066389;28;69071;-37
2023/03/08 05:36:50;;;;;;;;;;;;;;;30.55;51.29;101197.53;5047724;28;65754;-38
2023/03/08 05:39:21;;;;;;;;;;;;;;;30.56;51.22;101191.06;5047123;28;70896;-40
2023/03/08 05:42:14;;;;;;;;;;;;;;;30.57;51.09;101183.78;5050563;28;66646;-37
2023/03/08 05:44:46;;;;;;;;;;;;;;;30.60;50.87;101184.19;5047328;28;69387;-38
2023/03/08 05:47:21;;;;;;;;;;;;;;;30.61;51.04;101180.44;5042466;28;67159;-38
2023/03/08 05:49:52;;;;;;;;;;;;;;;30.64;50.61;101174.59;5049881;28;69798;-38
2023/03/08 05:52:23;;;;;;;;;;;;;;;30.67;51.01;101170.63;5056747;28;66063;-37
2023/03/08 05:54:53;;;;;;;;;;;;;;;30.69;50.48;101172.09;5052689;28;69055;-38
2023/03/08 05:57:24;;;;;;;;;;;;;;;30.71;50.59;101159.19;5048791;28;65392;-37
2023/03/08 05:59:54;;;;;;;;;;;;;;;30.73;50.50;101159.81;5043388;28;70596;-38
2023/03/08 06:02:27;;;;;;;;;;;;;;;30.76;50.84;101157.69;5049554;27;67468;-36
2023/03/08 06:04:58;;;;;;;;;;;;;;;30.77;50.45;101151.25;5058294;28;70039;-37
2023/03/08 06:07:29;;;;;;;;;;;;;;;30.80;50.44;101148.13;5047036;27;66754;-37
2023/03/08 06:10:06;;;;;;;;;;;;;;;30.82;50.45;101148.78;5055433;28;69903;-38
2023/03/08 06:12:36;;;;;;;;;;;;;;;30.85;50.22;101142.91;5045578;28;66906;-39
2023/03/08 06:15:11;;;;;;;;;;;;;;;30.86;50.49;101139.16;5053843;28;70377;-38
2023/03/08 06:17:42;;;;;;;;;;;;;;;30.88;49.99;101132.47;5054651;28;66685;-37
2023/03/08 06:20:15;;;;;;;;;;;;;;;30.92;49.98;101132.88;5055928;28;69176;-36
2023/03/08 06:22:50;;;;;;;;;;;;;;;30.93;50.29;101131.84;5048442;28;67152;-37
2023/03/08 06:25:20;;;;;;;;;;;;;;;30.95;50.02;101121.59;5045247;28;69006;-38
2023/03/08 06:27:50;;;;;;;;;;;;;;;30.98;49.86;101115.78;5047676;28;66806;-37
2023/03/08 06:30:33;;;;;;;;;;;;;;;31.02;50.01;101116.19;5043017;28;69906;-37
2023/03/08 06:33:05;;;;;;;;;;;;;;;31.03;50.17;101113.22;5056630;28;66679;-38
2023/03/08 06:35:36;;;;;;;;;;;;;;;31.06;49.87;101106.56;5071674;28;69354;-37
2023/03/08 06:38:07;;;;;;;;;;;;;;;31.09;50.09;101106.13;5056046;28;66804;-38
2023/03/08 06:40:38;;;;;;;;;;;;;;;31.12;49.58;101109.25;5053955;28;70043;-38
2023/03/08 06:43:08;;;;;;;;;;;;;;;31.14;49.58;101099.00;5045100;28;65733;-37
2023/03/08 06:45:39;;;;;;;;;;;;;;;31.15;49.36;101092.56;5053797;28;70763;-36
2023/03/08 06:48:10;;;;;;;;;;;;;;;31.20;49.40;101096.47;5047112;28;67102;-37
2023/03/08 06:50:40;;;;;;;;;;;;;;;31.23;49.42;101090.63;5053167;28;70052;-37
2023/03/08 06:53:11;;;;;;;;;;;;;;;31.25;49.41;101077.69;5050165;28;66164;-37
2023/03/08 06:55:56;;;;;;;;;;;;;;;31.28;49.12;101077.25;5047811;28;70618;-37
2023/03/08 06:58:26;;;;;;;;;;;;;;;31.30;49.41;101075.16;5091472;27;67300;-38
2023/03/08 07:00:58;;;;;;;;;;;;;;;31.33;49.01;101070.13;5053895;28;70579;-38
2023/03/08 07:03:35;;;;;;;;;;;;;;;31.35;49.18;101064.50;5060016;28;65946;-37
2023/03/08 07:06:07;;;;;;;;;;;;;;;31.38;49.27;101056.78;5053335;28;70018;-37
2023/03/08 07:08:40;;;;;;;;;;;;;;;31.41;49.12;101051.97;5056899;27;67135;-37
2023/03/08 07:11:11;;;;;;;;;;;;;;;31.43;48.74;101048.00;5054939;28;68870;-37
2023/03/08 07:13:42;;;;;;;;;;;;;;;31.45;48.74;101045.88;5035738;28;66289;-37
2023/03/08 07:16:12;;;;;;;;;;;;;;;31.46;49.03;101042.13;5047406;28;69746;-37
2023/03/08 07:18:43;;;;;;;;;;;;;;;31.49;48.79;101041.69;5050723;28;65316;-37
2023/03/08 07:21:14;;;;;;;;;;;;;;;31.51;48.48;101033.31;5042396;28;69274;-36
2023/03/08 07:23:44;;;;;;;;;;;;;;;31.54;48.56;101028.31;5047881;28;63987;-39
2023/03/08 07:26:15;;;;;;;;;;;;;;;31.56;48.80;101023.47;5061111;27;70798;-37
2023/03/08 07:28:47;;;;;;;;;;;;;;;31.59;48.51;101012.22;5057239;28;66951;-37
2023/03/08 07:31:35;;;;;;;;;;;;;;;31.63;48.70;101011.75;5052525;28;68899;-37
2023/03/08 07:34:05;;;;;;;;;;;;;;;31.67;48.38;101010.25;5044403;28;66153;-38
2023/03/08 07:36:35;;;;;;;;;;;;;;;31.70;48.31;100998.94;5049016;28;69682;-37
2023/03/08 07:39:05;;;;;;;;;;;;;;;31.72;48.05;100997.69;5079772;27;65334;-37
2023/03/08 07:41:36;;;;;;;;;;;;;;;31.76;48.35;100992.63;5044944;28;70120;-37
2023/03/08 07:44:06;;;;;;;;;;;;;;;31.79;48.07;100993.03;5048350;27;67349;-37
2023/03/08 07:46:37;;;;;;;;;;;;;;;31.81;47.89;100993.63;5045064;28;69426;-38
2023/03/08 07:49:10;;;;;;;;;;;;;;;31.85;47.82;100988.59;5051597;28;67434;-37
2023/03/08 07:51:40;;;;;;;;;;;;;;;31.88;47.81;100993.56;5051115;28;70803;-38
2023/03/08 07:54:11;;;;;;;;;;;;;;;31.92;47.90;100986.66;5050303;28;66662;-37
2023/03/08 07:56:42;;;;;;;;;;;;;;;31.95;47.60;100985.38;5045622;28;71209;-37
2023/03/08 07:59:12;;;;;;;;;;;;;;;31.97;47.67;100984.09;5055859;27;66003;-38
2023/03/08 08:01:43;;;;;;;;;;;;;;;32.01;47.51;100984.47;5052679;28;69331;-37
2023/03/08 08:04:13;;;;;;;;;;;;;;;32.03;47.69;100972.34;5087715;27;65734;-37
2023/03/08 08:06:44;;;;;;;;;;;;;;;32.04;47.57;100967.75;5057574;28;70153;-39
2023/03/08 08:09:16;;;;;;;;;;;;;;;32.08;47.63;100962.69;5050655;27;65631;-38
2023/03/08 08:11:46;;;;;;;;;;;;;;;32.10;47.41;100966.03;5054223;28;70334;-36
2023/03/08 08:14:16;;;;;;;;;;;;;;;32.13;47.21;100957.44;5052919;27;66940;-37
2023/03/08 08:16:47;;;;;;;;;;;;;;;32.15;47.16;100955.28;5044640;28;69943;-37
2023/03/08 08:19:17;;;;;;;;;;;;;;;32.18;47.18;100947.53;5077505;27;67011;-39
2023/03/08 08:21:48;;;;;;;;;;;;;;;32.21;46.93;100952.53;5055872;28;70548;-37
2023/03/08 08:24:18;;;;;;;;;;;;;;;32.25;47.04;100947.44;5052267;28;66757;-38
2023/03/08 08:26:48;;;;;;;;;;;;;;;32.28;46.98;100947.00;5047108;27;70265;-39
2023/03/08 08:29:18;;;;;;;;;;;;;;;32.31;46.85;100949.25;5054078;28;66814;-38
2023/03/08 08:31:51;;;;;;;;;;;;;;;32.34;46.91;100948.78;5053076;27;70168;-40
2023/03/08 08:34:21;;;;;;;;;;;;;;;32.37;46.64;100951.03;5053212;27;66655;-38
2023/03/08 08:36:52;;;;;;;;;;;;;;;32.25;46.92;100925.75;5044747;28;70205;-37
2023/03/08 08:39:22;;;;;;;;;;;;;;;32.43;46.59;100950.16;5050534;28;65810;-37
2023/03/08 08:41:53;;;;;;;;;;;;;;;32.47;46.50;100950.53;5044486;28;69094;-37
2023/03/08 08:44:23;;;;;;;;;;;;;;;32.51;46.58;100950.91;5042551;28;65636;-38
2023/03/08 08:46:53;;;;;;;;;;;;;;;32.54;46.49;100945.00;5051188;28;69784;-37
2023/03/08 08:49:23;;;;;;;;;;;;;;;32.57;46.51;100944.53;5044030;28;66303;-37
2023/03/08 08:51:55;;;;;;;;;;;;;;;32.60;46.22;100949.53;5047899;28;69851;-37
2023/03/08 08:54:25;;;;;;;;;;;;;;;32.62;46.45;100948.22;5047674;28;66687;-37
2023/03/08 08:56:56;;;;;;;;;;;;;;;32.65;46.25;100952.38;5044872;28;69990;-38
2023/03/08 08:59:29;;;;;;;;;;;;;;;32.68;46.35;100951.91;5045075;28;67262;-38
2023/03/08 09:02:00;;;;;;;;;;;;;;;32.71;46.14;100959.63;5045416;28;70206;-39
2023/03/08 09:04:30;;;;;;;;;;;;;;;32.73;46.23;100949.31;5045510;28;66494;-38
2023/03/08 09:07:00;;;;;;;;;;;;;;;32.76;46.26;100962.44;5052482;28;70051;-37
2023/03/08 09:09:30;;;;;;;;;;;;;;;32.80;45.82;100957.41;5051597;28;66664;-38
2023/03/08 09:12:01;;;;;;;;;;;;;;;32.81;45.92;100962.59;5052319;28;70497;-37
2023/03/08 09:14:31;;;;;;;;;;;;;;;32.84;46.04;100967.56;5048875;28;66669;-38
2023/03/08 09:17:01;;;;;;;;;;;;;;;32.85;45.93;100966.50;5054119;28;70299;-37
2023/03/08 09:19:32;;;;;;;;;;;;;;;32.89;46.23;100970.41;5055293;28;65833;-38
2023/03/08 09:22:02;;;;;;;;;;;;;;;32.92;45.95;100979.97;5054342;28;69862;-39
2023/03/08 09:24:33;;;;;;;;;;;;;;;32.93;46.11;100982.47;5082575;27;67159;-36
2023/03/08 09:27:04;;;;;;;;;;;;;;;32.94;45.98;100978.69;5044422;28;70447;-38
2023/03/08 09:29:36;;;;;;;;;;;;;;;32.97;45.94;100984.72;5049639;28;66178;-38
2023/03/08 09:32:07;;;;;;;;;;;;;;;32.99;45.86;100982.59;5045956;28;70320;-38
2023/03/08 09:34:38;;;;;;;;;;;;;;;33.02;45.80;100990.34;5059292;27;66695;-39
2023/03/08 09:37:10;;;;;;;;;;;;;;;33.04;45.79;100988.19;5052078;28;70554;-38
2023/03/08 09:39:41;;;;;;;;;;;;;;;33.06;45.80;100991.50;5042569;27;65959;-38
2023/03/08 09:42:23;;;;;;;;;;;;;;;32.76;45.60;100961.63;5052393;27;70654;-39
2023/03/08 09:45:14;;;;;;;;;;;;;;;32.67;47.00;100993.72;5077220;27;66074;-37
2023/03/08 09:47:55;;;;;;;;;;;;;;;32.45;47.20;101005.03;5045294;28;69850;-39
2023/03/08 09:50:31;;;;;;;;;;;;;;;32.36;47.21;100997.44;5055464;28;65633;-38
2023/03/08 09:53:02;;;;;;;;;;;;;;;32.27;47.08;101000.47;5051391;28;70075;-39
2023/03/08 09:55:34;;;;;;;;;;;;;;;32.19;47.49;101000.75;5045184;27;66913;-35
2023/03/08 09:58:10;;;;;;;;;;;;;;;32.15;47.83;101006.84;5053599;28;70003;-37
2023/03/08 10:00:43;;;;;;;;;;;;;;;32.07;48.21;101009.88;5079436;27;66903;-37
2023/03/08 10:03:19;;;;;;;;;;;;;;;32.02;48.52;101007.84;5044679;28;70457;-37
2023/03/08 10:06:08;;;;;;;;;;;;;;;32.00;49.19;101009.94;5079699;27;66144;-38
2023/03/08 10:08:48;;;;;;;;;;;;;;;31.99;49.35;101014.56;5045192;28;70536;-38
2023/03/08 10:11:35;;;;;;;;;;;;;;;31.96;49.42;101009.59;5047141;28;65306;-37
2023/03/08 10:14:25;;;;;;;;;;;;;;;31.96;49.77;101020.44;5045659;28;69811;-40
2023/03/08 10:17:03;;;;;;;;;;;;;;;31.95;49.63;101023.34;5045036;28;65882;-37
2023/03/08 10:20:12;;;;;;;;;;;;;;;31.95;49.77;101028.78;5047555;27;70283;-38
2023/03/08 10:22:45;;;;;;;;;;;;;;;31.94;49.60;101032.56;5062987;28;66545;-38
2023/03/08 10:25:27;;;;;;;;;;;;;;;31.93;49.35;101029.03;5061122;27;70216;-39
2023/03/08 10:27:59;;;;;;;;;;;;;;;31.89;48.44;101024.22;5051611;28;66402;-43
2023/03/08 10:30:39;;;;;;;;;;;;;;;31.85;48.32;101039.31;5045881;28;69352;-38
2023/03/08 10:33:11;;;;;;;;;;;;;;;31.80;48.55;101046.22;5046902;28;66144;-41
2023/03/08 10:35:55;;;;;;;;;;;;;;;31.78;48.41;101044.78;5048551;28;70501;-38
2023/03/08 10:38:27;;;;;;;;;;;;;;;31.75;48.70;101042.50;5056150;28;66349;-41
2023/03/08 10:40:59;;;;;;;;;;;;;;;31.72;49.16;101045.66;5047162;28;70484;-39
2023/03/08 10:43:33;;;;;;;;;;;;;;;31.69;49.11;101040.69;5048701;28;66150;-40
2023/03/08 10:46:05;;;;;;;;;;;;;;;31.66;49.05;101052.00;5056658;28;70019;-39
2023/03/08 10:48:37;;;;;;;;;;;;;;;31.64;50.01;101049.47;5048456;28;65673;-37
2023/03/08 10:51:15;;;;;;;;;;;;;;;31.61;50.38;101053.47;5048973;28;70850;-40
2023/03/08 10:53:56;;;;;;;;;;;;;;;31.61;50.38;101058.88;5047683;28;66935;-37
2023/03/08 10:56:27;;;;;;;;;;;;;;;31.60;50.18;101064.56;5046194;28;70665;-38
2023/03/08 10:58:58;;;;;;;;;;;;;;;31.59;49.85;101066.44;5049376;28;65521;-38
2023/03/08 11:01:30;;;;;;;;;;;;;;;31.58;49.35;101063.94;5046036;28;69631;-37
2023/03/08 11:04:20;;;;;;;;;;;;;;;31.57;49.32;101065.81;5048210;27;65848;-37
2023/03/08 11:06:50;;;;;;;;;;;;;;;31.54;49.25;101066.25;5044726;28;69032;-37
2023/03/08 11:09:32;;;;;;;;;;;;;;;31.54;49.12;101071.69;5047143;28;65889;-38
2023/03/08 11:12:02;;;;;;;;;;;;;;;31.67;49.05;101080.75;5043233;28;69541;-38
2023/03/08 11:14:32;;;;;;;;;;;;;;;31.79;48.93;101074.41;5056467;28;66441;-39
2023/03/08 11:17:22;;;;;;;;;;;;;;;31.89;48.03;101073.88;5041017;28;70321;-38
2023/03/08 11:20:13;;;;;;;;;;;;;;;31.96;47.99;101071.97;5065871;27;65395;-41
2023/03/08 11:23:02;;;;;;;;;;;;;;;32.02;47.48;101084.66;5063115;27;69859;-40
2023/03/08 11:25:36;;;;;;;;;;;;;;;32.05;47.43;101086.91;5069337;27;66041;-40
2023/03/08 11:28:16;;;;;;;;;;;;;;;32.08;47.36;101087.53;5052305;28;69839;-37
2023/03/08 11:31:05;;;;;;;;;;;;;;;32.09;47.37;101094.59;5049290;28;66358;-38
2023/03/08 11:33:41;;;;;;;;;;;;;;;32.10;47.16;101091.69;5047626;28;70069;-37
2023/03/08 11:36:20;;;;;;;;;;;;;;;32.12;47.10;101089.56;5031825;28;66371;-39
2023/03/08 11:38:57;;;;;;;;;;;;;;;32.11;47.35;101087.06;5048730;28;70347;-38
2023/03/08 11:41:41;;;;;;;;;;;;;;;31.96;49.23;101093.69;5042430;28;66396;-37
2023/03/08 11:44:27;;;;;;;;;;;;;;;31.80;50.79;101096.94;5047739;28;69089;-39
2023/03/08 11:47:01;;;;;;;;;;;;;;;31.68;51.88;101104.94;5051755;28;67143;-39
2023/03/08 11:49:31;;;;;;;;;;;;;;;31.78;51.41;101099.03;5032326;28;70109;-36
2023/03/08 11:52:07;;;;;;;;;;;;;;;31.87;50.82;101103.09;5048180;28;66735;-37
2023/03/08 11:54:47;;;;;;;;;;;;;;;31.91;50.45;101107.09;5044714;27;69547;-37
2023/03/08 11:57:19;;;;;;;;;;;;;;;31.94;50.19;101106.63;5079660;27;65519;-37
2023/03/08 12:00:10;;;;;;;;;;;;;;;31.95;50.31;101112.88;5080263;27;69742;-37
2023/03/08 12:02:46;;;;;;;;;;;;;;;31.94;49.96;101109.34;5044610;28;65398;-37
2023/03/08 12:05:42;;;;;;;;;;;;;;;31.95;50.07;101108.28;5050038;28;69358;-37
2023/03/08 12:08:31;;;;;;;;;;;;;;;31.95;50.04;101121.84;5041361;28;65491;-38
2023/03/08 12:11:04;;;;;;;;;;;;;;;31.94;50.11;101112.06;5048526;28;69161;-37
2023/03/08 12:13:37;;;;;;;;;;;;;;;31.93;50.23;101118.56;5045676;28;66222;-37
2023/03/08 12:16:13;;;;;;;;;;;;;;;31.92;50.16;101114.16;5052130;28;69717;-38
2023/03/08 12:19:02;;;;;;;;;;;;;;;31.91;50.12;101115.22;5050935;28;65666;-39
2023/03/08 12:21:36;;;;;;;;;;;;;;;31.90;50.19;101118.13;5026629;28;70171;-37
2023/03/08 12:24:24;;;;;;;;;;;;;;;31.89;50.25;101114.56;5054033;28;65997;-38
2023/03/08 12:27:05;;;;;;;;;;;;;;;31.86;50.39;101117.72;5048913;28;69683;-37
2023/03/08 12:29:35;;;;;;;;;;;;;;;31.84;50.75;101117.13;5052570;28;66839;-37
2023/03/08 12:32:06;;;;;;;;;;;;;;;31.82;50.33;101122.78;5049066;28;70258;-36
2023/03/08 12:34:39;;;;;;;;;;;;;;;31.60;50.25;101092.50;5046547;28;66006;-39
2023/03/08 12:37:39;;;;;;;;;;;;;;;31.80;50.13;101124.88;5046556;28;69995;-36
2023/03/08 12:40:29;;;;;;;;;;;;;;;31.80;50.16;101145.75;5042929;28;66748;-36
2023/03/08 12:43:05;;;;;;;;;;;;;;;31.77;50.30;101133.47;5050270;28;70463;-41
2023/03/08 12:45:36;;;;;;;;;;;;;;;31.75;50.06;101142.88;5050411;28;67370;-42
2023/03/08 12:48:14;;;;;;;;;;;;;;;31.75;50.26;101142.88;5053853;27;69950;-40
2023/03/08 12:51:05;;;;;;;;;;;;;;;31.72;50.42;101149.56;5048638;28;65387;-43
2023/03/08 12:53:37;;;;;;;;;;;;;;;31.70;50.24;101150.81;5044824;28;70234;-41
2023/03/08 12:56:11;;;;;;;;;;;;;;;31.69;50.37;101160.03;5048735;28;65533;-42
2023/03/08 12:58:50;;;;;;;;;;;;;;;31.67;50.17;101167.53;5068879;27;70807;-42
2023/03/08 13:01:29;;;;;;;;;;;;;;;31.66;49.64;101165.88;5053099;28;66466;-42
2023/03/08 13:04:00;;;;;;;;;;;;;;;31.57;50.92;101174.28;5049968;28;69910;-43
2023/03/08 13:06:44;;;;;;;;;;;;;;;31.40;51.83;101183.97;5044896;28;65319;-40
2023/03/08 13:09:25;;;;;;;;;;;;;;;31.28;51.95;101186.50;5078071;27;69217;-41